Gaza, Iowa
Current Conditions -  °F | °C
As of 8:55 AM on Wednesday 22 Oct 2014 (Local Time) from KSHL Reporting Station
Scattered Clouds Scattered Clouds  
Wind Chill: 50°   Ceiling: Unl
Heat Index: 50°   Visibility: 10mi
Dew Point: 43°   Wind: 20mph
Humidity: 76%   Direction: 150°SSE
Pressure: 30.05"   Gusts: 29mph
Location:  43.0671°N, 95.6714°W
Report Text: KSHL 221355Z AUTO 15017G25KT 10SM SCT080 10/06 A3005 RMK AO2
Loading
Personal Weather Stations






























Interactive Weather Map
Tropical Storm Tracking
New forecast layout! Learn more

10-Day Weather Forecast

Advertisements
Track Severe Weather on mobile